Time;durP1;ratioP1;P1;durP2;ratioP2;P2;SDS_P1;SDS_P2;PMS_P1;PMS_P2;Temp;Humidity;BMP_temperature;BMP_pressure;BME280_temperature;BME280_humidity;BME280_pressure;Samples;Min_cycle;Max_cycle;Signal;HPM_P1;HPM_P2
2023/08/14 00:02:05;;;;;;;2.10;1.30;;;19.30;96.90;;;;;;4999619;28;20026;-85
2023/08/14 00:04:31;;;;;;;1.30;1.20;;;19.30;96.90;;;;;;4997989;28;20022;-85
2023/08/14 00:06:56;;;;;;;1.52;1.20;;;19.30;97.00;;;;;;5011263;28;20026;-84
2023/08/14 00:09:22;;;;;;;1.50;1.17;;;19.20;97.00;;;;;;4989835;28;20021;-84
2023/08/14 00:11:48;;;;;;;1.95;1.20;;;19.20;97.00;;;;;;5000329;28;20060;-86
2023/08/14 00:14:14;;;;;;;1.70;1.13;;;19.20;97.00;;;;;;4991307;28;20280;-85
2023/08/14 00:16:40;;;;;;;2.42;1.27;;;19.10;97.00;;;;;;5005196;28;20076;-85
2023/08/14 00:19:06;;;;;;;1.73;1.40;;;19.10;97.00;;;;;;4989839;28;20034;-85
2023/08/14 00:21:31;;;;;;;2.80;1.50;;;19.10;97.00;;;;;;5014495;28;20034;-84
2023/08/14 00:23:57;;;;;;;2.20;1.50;;;19.10;97.00;;;;;;5006758;28;20031;-84
2023/08/14 00:26:23;;;;;;;2.33;1.40;;;19.10;97.00;;;;;;5001889;28;20164;-85
2023/08/14 00:28:49;;;;;;;1.63;1.27;;;19.00;97.00;;;;;;4989535;28;20026;-85
2023/08/14 00:31:16;;;;;;;2.83;1.25;;;19.00;97.00;;;;;;4986543;28;20026;-85
2023/08/14 00:33:42;;;;;;;1.93;1.27;;;19.00;97.10;;;;;;4984312;28;20021;-85
2023/08/14 00:36:08;;;;;;;2.70;1.30;;;18.90;97.10;;;;;;4985529;28;20022;-82
2023/08/14 00:38:34;;;;;;;1.67;1.30;;;18.90;97.10;;;;;;5020947;28;20029;-81
2023/08/14 00:41:00;;;;;;;1.80;1.40;;;18.90;97.10;;;;;;5007466;28;20026;-83
2023/08/14 00:43:26;;;;;;;1.45;1.30;;;18.80;97.10;;;;;;4998472;28;20125;-80
2023/08/14 00:45:55;;;;;;;1.47;1.23;;;18.80;97.10;;;;;;5000273;28;20047;-82
2023/08/14 00:48:23;;;;;;;2.88;1.20;;;18.80;97.10;;;;;;5028168;28;20021;-83
2023/08/14 00:50:50;;;;;;;1.48;1.10;;;;;;;;;;5022941;28;20033;-81
2023/08/14 00:53:18;;;;;;;1.40;1.30;;;18.70;96.90;;;;;;4988399;28;20025;-81
2023/08/14 00:55:45;;;;;;;1.60;1.50;;;18.70;97.10;;;;;;4988380;28;20866;-81
2023/08/14 00:58:12;;;;;;;1.50;1.20;;;18.70;97.20;;;;;;4993082;28;20398;-82
2023/08/14 01:00:39;;;;;;;1.65;1.30;;;18.50;98.10;;;;;;4998961;28;20419;-81
2023/08/14 01:05:34;;;;;;;1.65;1.20;;;18.60;97.30;;;;;;5001268;28;20093;-22
2023/08/14 01:08:00;;;;;;;1.70;1.30;;;18.60;97.30;;;;;;4971001;28;20393;-22
2023/08/14 01:10:49;;;;;;;1.48;1.30;;;18.50;97.30;;;;;;4990755;28;20290;-21
2023/08/14 01:13:30;;;;;;;2.30;1.15;;;18.50;97.30;;;;;;4996584;28;20049;-23
2023/08/14 01:16:01;;;;;;;1.42;1.27;;;18.50;97.30;;;;;;5010367;28;20040;-22
2023/08/14 01:18:30;;;;;;;1.93;1.33;;;18.40;97.30;;;;;;4994971;28;20239;-22
2023/08/14 01:21:15;;;;;;;1.40;1.20;;;18.40;97.40;;;;;;4984305;28;20448;-22
2023/08/14 01:23:52;;;;;;;1.50;1.20;;;18.40;97.20;;;;;;4982239;28;26139;-22
2023/08/14 01:26:18;;;;;;;2.10;1.30;;;18.30;97.30;;;;;;4989021;28;20071;-22
2023/08/14 01:28:45;;;;;;;1.90;1.30;;;18.30;97.50;;;;;;5002897;28;20033;-21
2023/08/14 01:31:10;;;;;;;1.80;1.20;;;18.30;97.50;;;;;;4979968;28;20049;-22
2023/08/14 01:33:36;;;;;;;1.60;1.20;;;18.30;97.60;;;;;;4995756;28;20061;-22
2023/08/14 01:36:08;;;;;;;2.10;1.30;;;18.20;97.60;;;;;;4997524;28;20483;-21
2023/08/14 01:38:46;;;;;;;2.95;1.30;;;18.20;97.50;;;;;;4953021;28;20034;-22
2023/08/14 01:41:26;;;;;;;1.38;1.17;;;18.20;97.60;;;;;;4997827;28;20017;-21
2023/08/14 01:43:57;;;;;;;1.98;1.25;;;18.20;97.50;;;;;;5000381;28;20030;-23
2023/08/14 01:46:25;;;;;;;2.10;1.20;;;18.10;97.60;;;;;;4994009;28;20086;-22
2023/08/14 01:48:52;;;;;;;2.13;1.40;;;18.10;97.60;;;;;;4994394;28;20394;-24
2023/08/14 01:51:20;;;;;;;1.80;1.30;;;18.10;97.70;;;;;;4980230;28;20022;-21
2023/08/14 01:53:46;;;;;;;1.50;1.30;;;18.10;97.70;;;;;;4993117;28;20033;-21
2023/08/14 01:56:12;;;;;;;2.53;1.40;;;18.00;97.70;;;;;;4985447;28;20174;-22
2023/08/14 01:58:38;;;;;;;2.33;1.30;;;18.10;97.70;;;;;;4986925;28;20041;-21
2023/08/14 02:01:04;;;;;;;1.57;1.30;;;18.00;97.70;;;;;;5002103;28;20029;-22
2023/08/14 02:03:30;;;;;;;2.97;1.33;;;18.00;97.70;;;;;;4994796;28;20049;-23
2023/08/14 02:05:56;;;;;;;1.80;1.23;;;18.00;97.70;;;;;;4968392;28;20128;-22
2023/08/14 02:08:22;;;;;;;1.98;1.30;;;18.00;97.70;;;;;;5008833;28;20037;-21
2023/08/14 02:10:47;;;;;;;2.08;1.20;;;17.90;98.00;;;;;;4988834;28;20044;-23
2023/08/14 02:13:13;;;;;;;1.30;1.10;;;17.90;97.70;;;;;;4998631;28;20376;-21
2023/08/14 02:15:39;;;;;;;1.20;1.10;;;;;;;;;;5012210;28;20029;-21
2023/08/14 02:18:05;;;;;;;1.80;1.20;;;17.90;97.50;;;;;;4992337;28;20068;-21
2023/08/14 02:20:31;;;;;;;3.10;1.50;;;17.90;97.70;;;;;;5000620;28;20571;-21
2023/08/14 02:22:56;;;;;;;1.23;1.13;;;17.80;97.70;;;;;;4988745;28;20033;-24
2023/08/14 02:25:22;;;;;;;1.40;1.17;;;17.80;97.80;;;;;;4993474;28;20350;-23
2023/08/14 02:27:48;;;;;;;1.20;1.02;;;17.80;97.80;;;;;;5014751;28;20119;-22
2023/08/14 02:30:13;;;;;;;2.33;1.10;;;17.80;97.80;;;;;;4999672;28;20538;-24
2023/08/14 02:32:39;;;;;;;2.10;1.20;;;17.70;97.80;;;;;;5013230;28;20116;-25
2023/08/14 02:35:05;;;;;;;1.73;1.13;;;17.70;97.80;;;;;;4982980;28;20033;-23
2023/08/14 02:37:31;;;;;;;1.33;1.10;;;17.70;97.90;;;;;;5003564;28;20076;-23
2023/08/14 02:39:57;;;;;;;1.93;1.10;;;17.60;97.80;;;;;;5002752;28;20053;-25
2023/08/14 02:42:22;;;;;;;1.52;1.10;;;17.60;97.90;;;;;;5007747;28;20504;-23
2023/08/14 02:44:50;;;;;;;1.20;1.00;;;17.60;97.90;;;;;;5007037;28;20030;-24
2023/08/14 02:47:17;;;;;;;2.10;1.20;;;17.60;97.90;;;;;;4990600;28;20284;-24
2023/08/14 02:49:42;;;;;;;1.67;1.13;;;17.60;97.90;;;;;;5000827;28;20522;-24
2023/08/14 02:52:08;;;;;;;1.90;1.20;;;17.50;97.90;;;;;;4987673;28;23230;-25
2023/08/14 02:54:34;;;;;;;1.30;0.90;;;17.50;97.90;;;;;;5011436;28;20487;-23
2023/08/14 02:56:59;;;;;;;1.80;1.10;;;17.50;97.90;;;;;;4988848;28;20098;-24
2023/08/14 02:59:25;;;;;;;1.10;1.00;;;17.40;97.90;;;;;;4990267;28;20284;-25
2023/08/14 03:01:51;;;;;;;1.30;1.00;;;17.40;97.90;;;;;;5010831;28;20029;-24
2023/08/14 03:04:17;;;;;;;1.73;1.10;;;17.40;98.00;;;;;;4974512;28;20056;-23
2023/08/14 03:06:42;;;;;;;1.30;1.10;;;17.40;98.00;;;;;;4995056;28;20040;-24
2023/08/14 03:09:08;;;;;;;1.20;1.10;;;17.30;98.00;;;;;;4998583;28;20314;-25
2023/08/14 03:11:34;;;;;;;1.40;1.00;;;17.30;98.00;;;;;;5014184;28;20109;-25
2023/08/14 03:14:00;;;;;;;1.57;0.90;;;17.30;98.00;;;;;;4994589;28;20029;-24
2023/08/14 03:16:25;;;;;;;1.30;1.00;;;17.30;98.00;;;;;;5001778;28;20029;-23
2023/08/14 03:18:51;;;;;;;1.20;1.10;;;17.20;98.00;;;;;;5011989;28;20030;-24
2023/08/14 03:21:17;;;;;;;1.40;1.00;;;17.20;98.00;;;;;;4975765;28;20124;-24
2023/08/14 03:23:44;;;;;;;1.30;1.10;;;17.20;98.00;;;;;;4998614;28;20022;-24
2023/08/14 03:26:10;;;;;;;3.15;1.10;;;17.20;98.00;;;;;;5001466;28;20033;-22
2023/08/14 03:28:36;;;;;;;1.83;1.20;;;17.20;98.10;;;;;;4978462;28;20579;-24
2023/08/14 03:31:02;;;;;;;1.27;1.03;;;17.20;98.10;;;;;;4982451;28;20402;-25
2023/08/14 03:33:27;;;;;;;2.08;1.20;;;17.10;98.20;;;;;;4992395;28;20026;-27
2023/08/14 03:35:54;;;;;;;1.20;1.10;;;17.10;98.20;;;;;;4991144;28;21146;-24
2023/08/14 03:38:20;;;;;;;1.52;1.13;;;17.10;98.30;;;;;;5008737;28;20021;-23
2023/08/14 03:40:46;;;;;;;1.13;1.00;;;17.10;98.30;;;;;;5000727;28;20036;-23
2023/08/14 03:43:12;;;;;;;1.80;1.20;;;17.10;98.40;;;;;;4941578;28;20617;-24
2023/08/14 03:45:37;;;;;;;1.60;1.20;;;17.00;98.40;;;;;;5010742;28;20032;-23
2023/08/14 03:48:04;;;;;;;1.70;1.30;;;17.10;98.50;;;;;;4979022;28;20022;-25
2023/08/14 03:50:29;;;;;;;1.60;1.23;;;17.10;98.50;;;;;;5005575;28;20033;-23
2023/08/14 03:52:55;;;;;;;1.70;1.20;;;17.00;98.50;;;;;;4995797;28;20526;-22
2023/08/14 03:55:22;;;;;;;1.95;1.20;;;17.10;98.50;;;;;;4998336;28;20174;-24
2023/08/14 03:57:47;;;;;;;1.95;1.33;;;17.10;98.60;;;;;;5008821;28;20563;-25
2023/08/14 04:00:13;;;;;;;2.60;1.30;;;17.10;98.60;;;;;;4972470;28;20229;-23
2023/08/14 04:02:39;;;;;;;2.03;1.20;;;17.10;98.60;;;;;;4993687;28;20104;-23
2023/08/14 04:05:05;;;;;;;2.65;1.40;;;17.10;98.60;;;;;;5007676;28;20034;-26
2023/08/14 04:07:31;;;;;;;1.70;1.17;;;17.00;98.60;;;;;;4996451;28;20044;-25
2023/08/14 04:09:57;;;;;;;2.00;1.00;;;17.00;98.60;;;;;;5010576;28;20055;-23
2023/08/14 04:12:23;;;;;;;1.65;1.25;;;17.00;98.60;;;;;;4981690;28;20353;-24
2023/08/14 04:14:49;;;;;;;1.87;1.20;;;17.00;98.70;;;;;;5008442;28;20025;-23
2023/08/14 04:17:15;;;;;;;1.55;1.20;;;17.00;98.70;;;;;;4995574;28;20323;-24
2023/08/14 04:19:41;;;;;;;2.20;1.10;;;16.90;98.70;;;;;;4987307;28;20521;-24
2023/08/14 04:22:07;;;;;;;1.50;1.20;;;16.90;98.80;;;;;;4994719;28;20171;-22
2023/08/14 04:24:32;;;;;;;3.00;1.40;;;17.00;98.80;;;;;;5013379;28;20029;-25
2023/08/14 04:26:58;;;;;;;1.77;1.30;;;16.90;98.80;;;;;;5001308;28;20026;-23
2023/08/14 04:29:24;;;;;;;1.60;1.30;;;16.90;98.80;;;;;;5009591;28;20710;-24
2023/08/14 04:31:50;;;;;;;1.80;1.23;;;16.90;98.90;;;;;;4973666;28;20080;-22
2023/08/14 04:34:16;;;;;;;1.80;1.20;;;16.90;98.90;;;;;;5012248;28;20183;-23
2023/08/14 04:36:42;;;;;;;1.52;1.27;;;16.90;99.00;;;;;;5004105;28;20022;-22
2023/08/14 04:39:08;;;;;;;1.70;1.30;;;16.90;99.00;;;;;;4984792;28;20191;-24
2023/08/14 04:41:34;;;;;;;2.40;1.30;;;16.90;99.10;;;;;;5015318;28;20542;-25
2023/08/14 04:44:00;;;;;;;1.63;1.23;;;16.90;99.10;;;;;;4999624;28;20075;-22
2023/08/14 04:46:36;;;;;;;1.30;1.13;;;16.90;99.20;;;;;;4977588;28;20042;-21
2023/08/14 04:49:03;;;;;;;1.20;1.10;;;16.90;99.10;;;;;;5010656;28;20473;-22
2023/08/14 04:51:29;;;;;;;1.88;1.35;;;16.90;99.30;;;;;;4975114;28;20378;-22
2023/08/14 04:53:57;;;;;;;2.03;1.30;;;16.90;99.30;;;;;;4977876;28;20053;-22
2023/08/14 04:56:22;;;;;;;1.30;1.00;;;16.90;99.40;;;;;;4990461;28;20267;-23
2023/08/14 04:58:48;;;;;;;1.40;1.20;;;17.00;99.50;;;;;;4997627;28;20029;-22
2023/08/14 05:01:14;;;;;;;3.35;1.38;;;17.00;99.60;;;;;;4957662;28;21046;-22
2023/08/14 05:03:40;;;;;;;1.33;1.17;;;16.90;99.60;;;;;;4975540;28;20315;-24
2023/08/14 05:06:06;;;;;;;2.57;1.30;;;17.00;99.70;;;;;;4993790;28;20038;-25
2023/08/14 05:08:32;;;;;;;2.55;1.27;;;17.10;99.80;;;;;;4987413;28;20694;-24
2023/08/14 05:10:57;;;;;;;1.65;1.35;;;17.10;99.80;;;;;;4965056;28;20021;-24
2023/08/14 05:13:23;;;;;;;1.70;1.20;;;17.10;99.80;;;;;;4994612;28;20493;-24
2023/08/14 05:15:51;;;;;;;1.95;1.30;;;17.20;99.90;;;;;;4997291;28;20458;-24
2023/08/14 05:18:17;;;;;;;1.50;1.20;;;17.20;99.90;;;;;;4960973;28;20270;-23
2023/08/14 05:20:43;;;;;;;3.90;1.73;;;17.10;99.90;;;;;;5011629;28;20429;-24
2023/08/14 05:23:10;;;;;;;1.80;1.20;;;17.20;99.90;;;;;;4998509;28;20057;-23
2023/08/14 05:25:36;;;;;;;2.28;1.40;;;17.20;99.90;;;;;;4997137;28;20352;-24
2023/08/14 05:28:01;;;;;;;1.90;1.40;;;17.20;99.90;;;;;;5008730;28;20060;-25
2023/08/14 05:30:27;;;;;;;2.00;1.13;;;17.30;99.90;;;;;;4998555;28;20371;-25
2023/08/14 05:32:53;;;;;;;2.17;1.55;;;17.30;99.90;;;;;;4988502;28;20060;-22
2023/08/14 05:35:23;;;;;;;1.93;1.23;;;17.30;99.90;;;;;;5006714;28;20171;-23
2023/08/14 05:37:52;;;;;;;2.33;1.40;;;17.30;99.90;;;;;;5004206;28;20029;-24
2023/08/14 05:40:27;;;;;;;1.60;1.30;;;17.30;99.90;;;;;;4979681;28;23781;-22
2023/08/14 05:43:09;;;;;;;2.72;1.38;;;17.40;99.90;;;;;;4989977;28;20022;-23
2023/08/14 05:45:41;;;;;;;1.83;1.33;;;17.40;99.90;;;;;;4998064;28;20045;-23
2023/08/14 05:48:07;;;;;;;2.60;1.40;;;17.50;99.90;;;;;;4984267;28;20227;-24
2023/08/14 05:50:33;;;;;;;2.35;1.30;;;17.60;99.90;;;;;;5006685;28;20107;-23
2023/08/14 05:53:03;;;;;;;1.50;1.30;;;17.60;99.90;;;;;;4984616;28;20648;-23
2023/08/14 05:55:31;;;;;;;2.10;1.30;;;17.70;99.90;;;;;;5008443;28;20687;-24
2023/08/14 05:57:57;;;;;;;2.40;1.50;;;17.80;99.90;;;;;;4992027;28;20483;-22
2023/08/14 06:00:24;;;;;;;2.20;1.45;;;17.80;99.90;;;;;;4997252;28;20141;-23
2023/08/14 06:02:51;;;;;;;3.70;1.45;;;17.90;99.90;;;;;;5006672;28;20108;-24
2023/08/14 06:05:17;;;;;;;2.40;1.50;;;18.00;99.90;;;;;;4987540;28;20045;-23
2023/08/14 06:07:42;;;;;;;2.00;1.43;;;18.20;99.90;;;;;;4963676;28;20057;-23
2023/08/14 06:10:08;;;;;;;2.10;1.48;;;18.20;99.90;;;;;;4983067;28;20036;-25
2023/08/14 06:12:35;;;;;;;4.63;1.95;;;18.30;99.90;;;;;;4998630;28;20045;-23
2023/08/14 06:15:01;;;;;;;2.50;1.47;;;18.40;99.90;;;;;;5000896;28;20036;-21
2023/08/14 06:17:27;;;;;;;2.05;1.52;;;18.50;99.90;;;;;;4967231;28;20232;-21
2023/08/14 06:19:53;;;;;;;2.30;1.50;;;18.60;99.90;;;;;;4990477;28;20026;-21
2023/08/14 06:22:19;;;;;;;2.50;1.55;;;18.60;99.90;;;;;;5007329;28;20100;-25
2023/08/14 06:24:46;;;;;;;2.30;1.60;;;18.80;99.90;;;;;;5003134;28;20810;-21
2023/08/14 06:27:11;;;;;;;2.75;1.77;;;18.90;99.90;;;;;;4999385;28;20036;-22
2023/08/14 06:29:37;;;;;;;2.75;1.70;;;19.00;99.90;;;;;;4977557;28;20262;-21
2023/08/14 06:32:05;;;;;;;3.20;1.60;;;19.10;99.90;;;;;;4983205;28;20714;-21
2023/08/14 06:34:30;;;;;;;2.60;1.60;;;19.20;99.90;;;;;;4987189;28;20038;-22
2023/08/14 06:36:56;;;;;;;2.35;1.52;;;19.30;99.90;;;;;;4993835;28;20037;-21
2023/08/14 06:39:22;;;;;;;2.30;1.53;;;19.40;99.90;;;;;;5003516;28;20532;-23
2023/08/14 06:41:48;;;;;;;1.92;1.42;;;19.50;99.90;;;;;;4979249;28;20111;-21
2023/08/14 06:44:13;;;;;;;1.80;1.30;;;19.50;99.90;;;;;;4998658;28;20029;-23
2023/08/14 06:46:40;;;;;;;2.42;1.33;;;19.60;99.90;;;;;;4985789;28;20040;-21
2023/08/14 06:49:05;;;;;;;2.33;1.60;;;19.60;99.90;;;;;;4983693;28;20045;-22
2023/08/14 06:51:32;;;;;;;2.27;1.40;;;19.70;99.90;;;;;;4982605;28;20108;-21
2023/08/14 06:53:58;;;;;;;2.97;1.60;;;19.70;99.90;;;;;;5015556;28;20048;-21
2023/08/14 06:56:24;;;;;;;1.73;1.17;;;19.70;99.90;;;;;;4987671;28;21060;-21
2023/08/14 06:58:50;;;;;;;3.83;1.50;;;19.70;99.90;;;;;;5000052;28;20026;-22
2023/08/14 07:01:16;;;;;;;1.87;1.30;;;19.70;99.90;;;;;;4986996;28;20092;-22
2023/08/14 07:03:41;;;;;;;2.40;1.30;;;19.70;99.90;;;;;;5004440;28;20083;-21
2023/08/14 07:06:07;;;;;;;1.63;1.30;;;19.80;99.90;;;;;;4992373;28;20034;-22
2023/08/14 07:08:33;;;;;;;3.70;1.40;;;19.80;99.90;;;;;;4973717;28;20116;-21
2023/08/14 07:10:59;;;;;;;1.90;1.30;;;19.80;99.90;;;;;;4986316;28;20042;-23
2023/08/14 07:13:25;;;;;;;1.45;1.20;;;19.90;99.90;;;;;;5002402;28;20085;-25
2023/08/14 07:15:50;;;;;;;1.98;1.30;;;19.90;99.90;;;;;;4995408;28;20118;-23
2023/08/14 07:18:18;;;;;;;2.77;1.30;;;20.00;99.90;;;;;;5005570;28;20034;-22
2023/08/14 07:20:45;;;;;;;1.77;1.17;;;20.00;99.90;;;;;;4971080;28;20021;-24
2023/08/14 07:23:14;;;;;;;2.95;1.38;;;20.20;99.90;;;;;;4983678;28;20029;-22
2023/08/14 07:25:40;;;;;;;2.92;1.30;;;20.20;99.90;;;;;;5010342;28;20034;-22
2023/08/14 07:28:06;;;;;;;2.80;1.40;;;20.30;99.90;;;;;;5018618;23;20731;-22
2023/08/14 07:30:31;;;;;;;2.22;1.20;;;20.40;99.90;;;;;;4988389;28;20082;-24
2023/08/14 07:32:57;;;;;;;1.87;1.13;;;20.50;99.90;;;;;;5047186;28;20022;-22
2023/08/14 07:35:24;;;;;;;2.30;1.20;;;20.60;99.90;;;;;;5034117;28;20024;-22
2023/08/14 07:37:49;;;;;;;1.50;1.10;;;20.70;99.90;;;;;;5019714;28;20054;-22
2023/08/14 07:40:15;;;;;;;3.43;1.20;;;20.80;99.90;;;;;;5015240;28;20496;-22
2023/08/14 07:42:41;;;;;;;2.50;1.10;;;20.90;99.90;;;;;;5043335;28;20029;-23
2023/08/14 07:45:07;;;;;;;1.70;1.20;;;21.00;99.90;;;;;;5008438;28;20090;-21
2023/08/14 07:47:34;;;;;;;2.47;1.20;;;21.10;99.90;;;;;;5026962;28;20287;-24
2023/08/14 07:49:59;;;;;;;2.38;1.20;;;21.20;99.90;;;;;;5023312;28;20029;-23
2023/08/14 07:52:27;;;;;;;1.73;1.02;;;21.30;99.90;;;;;;5047212;28;20037;-24
2023/08/14 07:54:53;;;;;;;1.53;1.07;;;21.50;99.90;;;;;;5019943;28;20821;-22
2023/08/14 07:57:19;;;;;;;1.73;1.00;;;21.70;99.90;;;;;;5021942;28;21502;-22
2023/08/14 07:59:45;;;;;;;2.58;1.00;;;21.80;99.90;;;;;;5036797;28;20036;-21
2023/08/14 08:02:11;;;;;;;2.33;1.30;;;22.00;99.90;;;;;;5011634;28;20025;-24
2023/08/14 08:04:36;;;;;;;1.50;1.13;;;22.30;99.90;;;;;;5035171;28;20423;-21
2023/08/14 08:07:03;;;;;;;2.73;1.20;;;22.50;99.90;;;;;;5030318;28;20142;-22
2023/08/14 08:09:29;;;;;;;2.45;1.10;;;22.70;99.90;;;;;;5037965;28;20032;-22
2023/08/14 08:11:56;;;;;;;2.20;0.93;;;23.00;99.90;;;;;;5018349;28;20658;-21
2023/08/14 08:14:22;;;;;;;1.70;1.10;;;23.20;99.90;;;;;;5034738;28;20090;-22
2023/08/14 08:16:49;;;;;;;2.43;1.20;;;23.40;99.90;;;;;;5019791;28;20068;-22
2023/08/14 08:19:15;;;;;;;1.83;1.10;;;23.60;99.90;;;;;;5029902;28;20036;-21
2023/08/14 08:21:41;;;;;;;2.75;1.17;;;23.80;99.90;;;;;;5016326;28;20478;-22
2023/08/14 08:24:08;;;;;;;1.83;1.08;;;24.10;99.90;;;;;;5011728;28;20089;-21
2023/08/14 08:26:34;;;;;;;1.15;0.90;;;25.00;99.90;;;;;;5045180;28;20052;-22
2023/08/14 08:29:00;;;;;;;1.73;1.00;;;24.70;99.90;;;;;;5026908;28;20041;-22
2023/08/14 08:31:26;;;;;;;1.50;1.00;;;25.20;99.90;;;;;;5001650;28;20045;-22
2023/08/14 08:33:52;;;;;;;1.48;1.17;;;25.70;99.90;;;;;;5011313;28;20037;-24
2023/08/14 08:36:18;;;;;;;1.55;0.98;;;26.20;99.90;;;;;;5021676;28;20338;-22
2023/08/14 08:38:44;;;;;;;1.97;1.30;;;26.70;99.90;;;;;;5027679;28;20037;-23
2023/08/14 08:41:13;;;;;;;3.00;1.20;;;27.30;99.90;;;;;;5009489;28;20441;-22
2023/08/14 08:43:40;;;;;;;2.70;1.38;;;27.80;99.90;;;;;;5000018;28;20128;-24
2023/08/14 08:46:09;;;;;;;2.07;1.00;;;28.30;99.90;;;;;;5013843;28;20202;-25
2023/08/14 08:48:40;;;;;;;1.88;1.00;;;28.80;99.90;;;;;;5018849;28;20134;-25
2023/08/14 08:51:07;;;;;;;2.95;1.33;;;29.30;99.90;;;;;;4998179;28;20805;-24
2023/08/14 08:53:35;;;;;;;1.60;1.30;;;29.70;99.90;;;;;;4999675;28;20023;-24
2023/08/14 08:56:01;;;;;;;2.60;1.40;;;30.10;99.90;;;;;;4984105;28;20264;-24
2023/08/14 08:58:27;;;;;;;2.10;1.20;;;30.50;99.90;;;;;;5029761;28;20132;-25
2023/08/14 09:00:55;;;;;;;2.53;1.25;;;30.70;99.90;;;;;;5028600;28;20031;-24
2023/08/14 09:03:22;;;;;;;1.83;1.13;;;31.00;99.90;;;;;;5001287;28;20440;-23
2023/08/14 09:05:47;;;;;;;3.03;1.70;;;31.30;99.90;;;;;;4999518;28;20052;-26
2023/08/14 09:08:14;;;;;;;2.87;1.70;;;31.50;99.90;;;;;;5006072;28;20384;-25
2023/08/14 09:10:39;;;;;;;2.17;1.55;;;31.80;99.90;;;;;;5028347;28;20143;-23
2023/08/14 09:13:05;;;;;;;1.63;1.40;;;32.10;99.80;;;;;;5005834;28;20790;-23
2023/08/14 09:15:31;;;;;;;1.73;1.35;;;32.40;99.70;;;;;;5015763;28;20024;-23
2023/08/14 09:17:57;;;;;;;2.13;1.60;;;32.60;99.60;;;;;;5012220;28;20238;-27
2023/08/14 09:20:23;;;;;;;3.20;1.60;;;32.90;99.40;;;;;;5028509;28;20387;-25
2023/08/14 09:22:55;;;;;;;2.60;1.67;;;33.10;98.80;;;;;;5004781;28;20016;-28
2023/08/14 09:25:21;;;;;;;2.05;1.33;;;33.30;98.60;;;;;;5018905;28;20030;-24
2023/08/14 09:27:47;;;;;;;2.55;1.77;;;33.60;98.40;;;;;;5012665;28;20169;-24
2023/08/14 09:30:13;;;;;;;2.13;1.60;;;33.80;98.40;;;;;;5007420;28;20434;-24
2023/08/14 09:32:39;;;;;;;2.00;1.50;;;34.00;98.10;;;;;;5012460;28;20057;-26
2023/08/14 09:35:06;;;;;;;3.45;1.60;;;34.30;98.00;;;;;;4999232;28;20135;-24
2023/08/14 09:37:32;;;;;;;2.13;1.73;;;34.50;97.60;;;;;;5004103;28;20364;-25
2023/08/14 09:40:08;;;;;;;2.47;1.90;;;34.60;97.40;;;;;;4999595;28;20029;-25
2023/08/14 09:42:34;;;;;;;1.80;1.70;;;34.80;94.20;;;;;;5020138;28;20424;-26
2023/08/14 09:45:01;;;;;;;2.28;1.75;;;34.80;96.70;;;;;;4992836;28;20219;-26
2023/08/14 09:47:27;;;;;;;2.05;1.70;;;35.00;96.80;;;;;;5021672;28;20706;-26
2023/08/14 09:49:56;;;;;;;2.08;1.60;;;35.10;96.70;;;;;;4995065;28;20059;-23
2023/08/14 09:52:24;;;;;;;2.87;1.70;;;35.20;95.20;;;;;;5010961;28;20836;-23
2023/08/14 09:54:50;;;;;;;1.98;1.58;;;35.40;95.50;;;;;;5002917;28;20803;-23
2023/08/14 09:57:22;;;;;;;2.78;1.60;;;35.50;96.50;;;;;;5017439;28;20573;-23
2023/08/14 09:59:48;;;;;;;2.47;1.80;;;35.50;93.80;;;;;;5007419;28;20022;-22
2023/08/14 10:02:16;;;;;;;2.33;1.70;;;35.60;95.90;;;;;;4992390;28;20803;-25
2023/08/14 10:04:46;;;;;;;2.55;1.90;;;35.70;94.70;;;;;;4988205;28;20028;-22
2023/08/14 10:07:17;;;;;;;3.13;1.90;;;35.80;94.60;;;;;;4995639;28;20709;-22
2023/08/14 10:09:59;;;;;;;2.35;1.90;;;35.80;93.90;;;;;;5022625;28;20474;-23
2023/08/14 10:12:32;;;;;;;2.58;1.75;;;35.90;93.40;;;;;;4985705;28;20047;-22
2023/08/14 10:15:14;;;;;;;1.80;1.40;;;36.00;93.60;;;;;;4991603;28;20083;-24
2023/08/14 10:17:56;;;;;;;2.58;1.63;;;36.10;92.80;;;;;;5025159;28;20044;-23
2023/08/14 10:20:23;;;;;;;3.30;1.90;;;36.20;92.30;;;;;;4999748;28;20143;-27
2023/08/14 10:22:52;;;;;;;1.73;1.60;;;36.20;94.90;;;;;;5025709;28;20434;-23
2023/08/14 10:25:19;;;;;;;1.73;1.50;;;36.20;94.50;;;;;;5018948;28;20115;-22
2023/08/14 10:27:46;;;;;;;2.00;1.80;;;36.30;94.40;;;;;;5020759;28;20759;-22
2023/08/14 10:30:13;;;;;;;2.22;1.80;;;36.30;94.90;;;;;;4997237;28;20115;-23
2023/08/14 10:32:40;;;;;;;2.53;1.77;;;36.40;94.70;;;;;;5029678;28;20761;-23
2023/08/14 10:35:07;;;;;;;2.30;1.75;;;36.50;94.50;;;;;;5016690;28;20025;-25
2023/08/14 10:37:44;;;;;;;2.20;1.65;;;36.60;94.70;;;;;;5012091;28;20021;-23
2023/08/14 10:40:17;;;;;;;2.53;1.90;;;36.60;91.60;;;;;;5019886;28;20142;-23
2023/08/14 10:42:57;;;;;;;1.95;1.33;;;36.60;91.00;;;;;;5027500;28;20041;-23
2023/08/14 10:45:27;;;;;;;3.75;2.17;;;36.60;90.20;;;;;;5010454;28;20021;-22
2023/08/14 10:47:59;;;;;;;3.63;2.00;;;36.60;91.80;;;;;;5012825;28;20029;-23
2023/08/14 10:50:27;;;;;;;2.78;1.60;;;36.70;91.40;;;;;;5007414;28;20091;-23
2023/08/14 10:52:55;;;;;;;2.73;2.10;;;36.80;93.30;;;;;;5001614;28;20040;-24
2023/08/14 10:55:35;;;;;;;2.30;1.60;;;36.80;92.90;;;;;;5029009;28;20554;-23
2023/08/14 10:58:01;;;;;;;2.28;1.63;;;36.90;91.00;;;;;;5033333;28;20578;-24
2023/08/14 11:00:27;;;;;;;2.10;1.90;;;37.00;93.00;;;;;;5022885;28;20040;-26
2023/08/14 11:03:04;;;;;;;2.77;1.60;;;37.00;92.70;;;;;;4999144;28;20096;-23
2023/08/14 11:05:39;;;;;;;3.40;1.90;;;37.10;89.20;;;;;;4997674;28;20039;-25
2023/08/14 11:08:07;;;;;;;2.78;1.90;;;37.30;85.70;;;;;;5004125;28;20026;-25
2023/08/14 11:10:34;;;;;;;2.88;1.88;;;37.40;91.90;;;;;;5030544;28;20136;-26
2023/08/14 11:13:01;;;;;;;2.93;1.73;;;37.40;91.10;;;;;;5030336;28;20056;-25
2023/08/14 11:15:30;;;;;;;2.28;1.98;;;37.60;90.90;;;;;;5006620;28;20026;-25
2023/08/14 11:17:56;;;;;;;2.67;2.10;;;37.60;88.20;;;;;;5015263;28;20043;-27
2023/08/14 11:20:26;;;;;;;2.33;1.90;;;37.80;90.50;;;;;;5026420;28;20292;-26
2023/08/14 11:22:52;;;;;;;2.20;1.90;;;38.00;86.40;;;;;;5011944;28;20028;-25
2023/08/14 11:25:19;;;;;;;2.20;2.00;;;38.00;88.20;;;;;;5005528;28;20037;-28
2023/08/14 11:27:50;;;;;;;2.63;1.90;;;38.10;87.80;;;;;;5029624;28;20045;-28
2023/08/14 11:30:16;;;;;;;2.10;1.90;;;38.20;82.60;;;;;;5007237;28;20478;-25
2023/08/14 11:32:42;;;;;;;3.33;2.30;;;38.30;85.70;;;;;;4986381;28;20037;-27
2023/08/14 11:35:10;;;;;;;1.83;1.70;;;38.40;84.50;;;;;;4994354;28;20602;-28
2023/08/14 11:37:37;;;;;;;2.08;1.60;;;38.50;82.80;;;;;;5016699;28;20123;-25
2023/08/14 11:40:07;;;;;;;2.72;1.80;;;38.50;83.00;;;;;;5004877;28;20021;-26
2023/08/14 11:42:36;;;;;;;2.38;1.65;;;38.50;78.00;;;;;;5009381;28;20056;-25
2023/08/14 11:45:04;;;;;;;2.28;2.00;;;38.60;78.50;;;;;;5020395;28;20033;-28
2023/08/14 11:47:32;;;;;;;2.53;1.77;;;38.60;80.10;;;;;;4987081;28;20024;-26
2023/08/14 11:49:58;;;;;;;2.90;1.80;;;38.60;80.30;;;;;;5021516;28;20029;-26
2023/08/14 11:52:27;;;;;;;3.55;2.00;;;38.60;79.00;;;;;;5010661;28;20476;-26
2023/08/14 11:54:57;;;;;;;2.15;1.90;;;38.60;75.90;;;;;;5021058;28;20036;-27
2023/08/14 11:57:26;;;;;;;2.35;2.00;;;38.60;76.00;;;;;;5010883;28;20386;-26
2023/08/14 11:59:57;;;;;;;2.80;1.87;;;38.70;74.50;;;;;;5015453;28;20090;-26
2023/08/14 12:02:24;;;;;;;2.97;1.52;;;38.70;74.20;;;;;;5005833;28;20033;-25
2023/08/14 12:04:54;;;;;;;3.38;2.10;;;38.70;76.60;;;;;;5013764;28;20120;-25
2023/08/14 12:07:20;;;;;;;3.65;2.08;;;38.70;73.60;;;;;;5007789;28;20029;-26
2023/08/14 12:09:46;;;;;;;2.88;2.10;;;38.80;76.00;;;;;;5004151;28;20592;-27
2023/08/14 12:12:13;;;;;;;3.40;1.87;;;38.80;74.50;;;;;;5024205;28;20524;-26
2023/08/14 12:14:44;;;;;;;3.47;1.90;;;38.80;73.10;;;;;;5021180;28;20037;-27
2023/08/14 12:17:11;;;;;;;2.65;2.00;;;38.70;67.80;;;;;;5007576;28;20032;-26
2023/08/14 12:19:38;;;;;;;2.78;1.88;;;38.60;71.60;;;;;;5008201;28;20223;-25
2023/08/14 12:22:07;;;;;;;2.97;1.90;;;38.50;71.50;;;;;;5007610;28;20055;-27
2023/08/14 12:24:40;;;;;;;2.10;1.90;;;38.60;72.00;;;;;;5016580;28;20293;-24
2023/08/14 12:27:17;;;;;;;2.60;1.95;;;38.60;68.10;;;;;;5022247;28;20036;-24
2023/08/14 12:29:44;;;;;;;2.15;1.90;;;38.70;67.70;;;;;;5033165;28;20414;-24
2023/08/14 12:32:10;;;;;;;4.05;2.10;;;38.80;71.20;;;;;;5005279;28;20041;-28
2023/08/14 12:34:36;;;;;;;3.15;2.03;;;38.90;71.00;;;;;;4998258;28;20262;-25
2023/08/14 12:37:03;;;;;;;2.17;1.87;;;38.90;70.70;;;;;;5018662;28;20039;-28
2023/08/14 12:39:29;;;;;;;2.60;1.70;;;39.00;70.50;;;;;;5008290;28;20686;-24
2023/08/14 12:41:57;;;;;;;2.05;1.77;;;39.10;70.40;;;;;;5026691;28;20014;-28
2023/08/14 12:44:22;;;;;;;2.40;1.98;;;39.20;69.50;;;;;;5011015;28;20677;-24
2023/08/14 12:46:48;;;;;;;3.17;1.63;;;39.30;68.80;;;;;;5024017;28;20052;-24
2023/08/14 12:49:14;;;;;;;3.42;2.00;;;39.20;68.30;;;;;;4964732;28;20584;-27
2023/08/14 12:51:41;;;;;;;1.73;1.63;;;39.20;67.50;;;;;;5021399;28;20120;-24